Time;durP1;ratioP1;P1;durP2;ratioP2;P2;SDS_P1;SDS_P2;PMS_P1;PMS_P2;Temp;Humidity;BMP_temperature;BMP_pressure;BME280_temperature;BME280_humidity;BME280_pressure;Samples;Min_cycle;Max_cycle;Signal;HPM_P1;HPM_P2
2024/03/25 00:01:55;;;;;;;;;;;4.80;99.90;;;;;;5050914;28;19913;-58
2024/03/25 00:04:22;;;;;;;;;;;4.80;99.90;;;;;;5037848;28;19966;-54
2024/03/25 00:06:48;;;;;;;;;;;4.80;99.90;;;;;;5035462;28;20015;-57
2024/03/25 00:09:14;;;;;;;;;;;4.80;99.90;;;;;;5040460;28;20008;-57
2024/03/25 00:11:42;;;;;;;;;;;4.90;99.90;;;;;;5032447;28;20419;-55
2024/03/25 00:14:08;;;;;;;;;;;4.90;99.90;;;;;;5032199;28;19917;-58
2024/03/25 00:16:34;;;;;;;;;;;5.00;99.90;;;;;;5032232;28;20587;-58
2024/03/25 00:18:59;;;;;;;;;;;5.00;99.90;;;;;;5013832;28;20270;-58
2024/03/25 00:21:25;;;;;;;;;;;5.00;99.90;;;;;;5032416;28;20373;-58
2024/03/25 00:23:50;;;;;;;;;;;4.90;99.90;;;;;;5033141;28;19924;-60
2024/03/25 00:26:16;;;;;;;;;;;4.90;99.90;;;;;;5039670;28;20412;-59
2024/03/25 00:28:41;;;;;;;;;;;4.80;99.90;;;;;;5039199;28;20011;-58
2024/03/25 00:31:06;;;;;;;;;;;4.90;99.90;;;;;;5032485;28;19919;-57
2024/03/25 00:33:32;;;;;;;;;;;4.90;99.90;;;;;;5040388;28;19991;-56
2024/03/25 00:35:58;;;;;;;;;;;4.90;99.90;;;;;;5048320;28;19917;-55
2024/03/25 00:38:24;;;;;;;;;;;4.90;99.90;;;;;;5040020;28;20331;-56
2024/03/25 00:40:50;;;;;;;;;;;4.90;99.90;;;;;;5031878;28;19921;-58
2024/03/25 00:43:15;;;;;;;;;;;4.90;99.90;;;;;;5031788;28;19917;-57
2024/03/25 00:45:41;;;;;;;;;;;4.90;99.90;;;;;;5031688;28;19917;-59
2024/03/25 00:48:07;;;;;;;;;;;4.90;99.90;;;;;;5031616;28;20419;-55
2024/03/25 00:50:32;;;;;;;;;;;4.90;99.90;;;;;;5031424;28;20016;-58
2024/03/25 00:52:58;;;;;;;;;;;4.90;99.90;;;;;;5013797;28;19917;-59
2024/03/25 00:55:24;;;;;;;;;;;4.90;99.90;;;;;;5036721;28;19916;-59
2024/03/25 00:57:50;;;;;;;;;;;4.90;99.90;;;;;;5042327;28;20390;-57
2024/03/25 01:00:16;;;;;;;;;;;4.90;99.90;;;;;;5035326;28;19913;-59
2024/03/25 01:02:41;;;;;;;;;;;4.80;99.90;;;;;;5043729;28;19920;-58
2024/03/25 01:05:07;;;;;;;;;;;4.80;99.90;;;;;;5034277;28;19944;-59
2024/03/25 01:07:32;;;;;;;;;;;4.80;99.90;;;;;;5043347;28;20338;-60
2024/03/25 01:10:01;;;;;;;;;;;4.70;99.90;;;;;;5032646;28;20231;-60
2024/03/25 01:12:26;;;;;;;;;;;4.70;99.90;;;;;;5044968;28;20003;-60
2024/03/25 01:14:52;;;;;;;;;;;4.70;99.90;;;;;;5042055;28;19999;-54
2024/03/25 01:17:18;;;;;;;;;;;4.70;99.90;;;;;;5031043;28;20004;-59
2024/03/25 01:19:43;;;;;;;;;;;4.70;99.90;;;;;;5038972;28;20484;-59
2024/03/25 01:22:09;;;;;;;;;;;4.70;99.90;;;;;;5042050;28;19915;-58
2024/03/25 01:24:34;;;;;;;;;;;4.70;99.90;;;;;;5042622;28;19920;-60
2024/03/25 01:27:00;;;;;;;;;;;4.70;99.90;;;;;;5040210;28;20008;-59
2024/03/25 01:29:25;;;;;;;;;;;4.70;99.90;;;;;;5030469;28;19948;-60
2024/03/25 01:31:51;;;;;;;;;;;4.70;99.90;;;;;;5039796;28;20007;-59
2024/03/25 01:34:16;;;;;;;;;;;4.70;99.90;;;;;;5038644;28;19914;-58
2024/03/25 01:36:42;;;;;;;;;;;4.70;99.90;;;;;;5030748;28;20038;-60
2024/03/25 01:39:08;;;;;;;;;;;4.60;99.90;;;;;;5029967;28;19924;-61
2024/03/25 01:41:33;;;;;;;;;;;4.50;99.90;;;;;;5045691;28;20007;-61
2024/03/25 01:43:59;;;;;;;;;;;4.50;99.90;;;;;;5040493;28;20381;-61
2024/03/25 01:46:25;;;;;;;;;;;4.50;99.90;;;;;;5038149;28;19921;-60
2024/03/25 01:48:52;;;;;;;;;;;4.50;99.90;;;;;;5030063;28;20274;-59
2024/03/25 01:51:18;;;;;;;;;;;4.50;99.90;;;;;;5030892;28;20397;-58
2024/03/25 01:53:44;;;;;;;;;;;4.50;99.90;;;;;;5029881;28;19917;-60
2024/03/25 01:56:10;;;;;;;;;;;4.60;99.90;;;;;;5038383;28;19923;-60
2024/03/25 01:58:37;;;;;;;;;;;4.60;99.90;;;;;;5030608;28;19913;-60
2024/03/25 02:01:03;;;;;;;;;;;4.60;99.90;;;;;;5039072;28;19986;-61
2024/03/25 02:03:29;;;;;;;;;;;4.60;99.90;;;;;;5030814;28;19966;-60
2024/03/25 02:05:55;;;;;;;;;;;4.60;99.90;;;;;;5030232;28;19909;-58
2024/03/25 02:08:22;;;;;;;;;;;4.60;99.90;;;;;;5038069;28;20336;-60
2024/03/25 02:10:48;;;;;;;;;;;4.60;99.90;;;;;;5046728;28;19955;-61
2024/03/25 02:13:14;;;;;;;;;;;4.70;99.90;;;;;;5038314;28;19956;-59
2024/03/25 02:15:40;;;;;;;;;;;4.70;99.90;;;;;;5030095;28;19983;-62
2024/03/25 02:18:06;;;;;;;;;;;4.70;99.90;;;;;;5030191;28;20321;-61
2024/03/25 02:20:31;;;;;;;;;;;4.70;99.90;;;;;;5030059;28;19975;-60
2024/03/25 02:22:57;;;;;;;;;;;4.70;99.90;;;;;;5030009;28;20004;-59
2024/03/25 02:25:22;;;;;;;;;;;4.70;99.90;;;;;;5029697;28;19917;-61
2024/03/25 02:27:48;;;;;;;;;;;4.70;99.90;;;;;;5029979;28;19913;-58
2024/03/25 02:30:14;;;;;;;;;;;4.70;99.90;;;;;;5037617;28;19917;-59
2024/03/25 02:32:40;;;;;;;;;;;4.80;99.90;;;;;;5030104;28;19917;-61
2024/03/25 02:35:07;;;;;;;;;;;4.70;99.90;;;;;;5029895;28;19920;-58
2024/03/25 02:37:33;;;;;;;;;;;4.70;99.90;;;;;;5036193;28;19917;-61
2024/03/25 02:39:59;;;;;;;;;;;4.70;99.90;;;;;;5039373;28;19959;-61
2024/03/25 02:42:26;;;;;;;;;;;4.70;99.90;;;;;;5030101;28;20324;-58
2024/03/25 02:44:52;;;;;;;;;;;4.70;99.90;;;;;;5030115;28;19909;-53
2024/03/25 02:47:19;;;;;;;;;;;4.80;99.90;;;;;;5033900;28;19959;-60
2024/03/25 02:49:44;;;;;;;;;;;4.70;99.90;;;;;;5041548;28;19925;-59
2024/03/25 02:52:10;;;;;;;;;;;4.80;99.90;;;;;;5041118;28;20020;-59
2024/03/25 02:54:35;;;;;;;;;;;4.80;99.90;;;;;;5034786;28;19928;-59
2024/03/25 02:57:01;;;;;;;;;;;4.80;99.90;;;;;;5037544;28;20368;-61
2024/03/25 02:59:26;;;;;;;;;;;4.80;99.90;;;;;;5031474;28;20300;-59
2024/03/25 03:01:52;;;;;;;;;;;4.80;99.90;;;;;;5033897;28;19932;-59
2024/03/25 03:04:17;;;;;;;;;;;4.90;99.90;;;;;;5042117;28;20051;-59
2024/03/25 03:06:43;;;;;;;;;;;4.80;99.90;;;;;;5033740;28;19917;-56
2024/03/25 03:09:08;;;;;;;;;;;4.80;99.90;;;;;;5032895;28;20200;-61
2024/03/25 03:11:33;;;;;;;;;;;4.80;99.90;;;;;;5033546;28;19920;-58
2024/03/25 03:13:59;;;;;;;;;;;4.80;99.90;;;;;;5033579;28;19920;-59
2024/03/25 03:16:24;;;;;;;;;;;4.80;99.90;;;;;;5038559;28;20401;-57
2024/03/25 03:18:50;;;;;;;;;;;4.80;99.90;;;;;;5044335;28;19924;-58
2024/03/25 03:21:15;;;;;;;;;;;4.80;99.90;;;;;;5033528;28;19920;-57
2024/03/25 03:23:41;;;;;;;;;;;4.80;99.90;;;;;;5033360;28;19949;-59
2024/03/25 03:26:07;;;;;;;;;;;4.70;99.90;;;;;;5033147;28;19917;-60
2024/03/25 03:28:32;;;;;;;;;;;4.60;99.90;;;;;;5047315;28;19952;-58
2024/03/25 03:30:58;;;;;;;;;;;4.50;99.90;;;;;;5036695;28;19913;-59
2024/03/25 03:33:23;;;;;;;;;;;4.40;99.90;;;;;;5040140;28;19927;-59
2024/03/25 03:35:49;;;;;;;;;;;4.40;99.90;;;;;;5041326;28;20309;-55
2024/03/25 03:38:14;;;;;;;;;;;4.40;99.90;;;;;;5033135;28;19960;-56
2024/03/25 03:40:40;;;;;;;;;;;4.20;99.90;;;;;;5032547;28;19971;-58
2024/03/25 03:43:05;;;;;;;;;;;4.20;99.90;;;;;;5041215;28;20007;-59
2024/03/25 03:45:33;;;;;;;;;;;4.20;99.90;;;;;;5033032;28;19924;-57
2024/03/25 03:47:58;;;;;;;;;;;4.30;99.90;;;;;;5050782;28;19921;-58
2024/03/25 03:50:23;;;;;;;;;;;4.30;99.90;;;;;;5044091;28;19913;-60
2024/03/25 03:52:49;;;;;;;;;;;4.30;99.90;;;;;;5044485;28;19928;-58
2024/03/25 03:55:14;;;;;;;;;;;4.30;99.90;;;;;;5040546;28;20440;-60
2024/03/25 03:57:42;;;;;;;;;;;4.30;99.90;;;;;;5033173;28;20007;-59
2024/03/25 04:00:08;;;;;;;;;;;4.40;99.90;;;;;;5032372;28;20028;-61
2024/03/25 04:02:34;;;;;;;;;;;4.40;99.90;;;;;;5041167;28;20020;-58
2024/03/25 04:04:59;;;;;;;;;;;4.50;99.90;;;;;;5042549;28;20607;-55
2024/03/25 04:07:26;;;;;;;;;;;4.50;99.90;;;;;;5038886;28;19921;-56
2024/03/25 04:09:54;;;;;;;;;;;4.50;99.90;;;;;;5032375;28;20373;-60
2024/03/25 04:12:20;;;;;;;;;;;4.50;99.90;;;;;;5039750;28;19983;-58
2024/03/25 04:14:54;;;;;;;;;;;4.50;99.90;;;;;;5032418;28;20377;-60
2024/03/25 04:17:21;;;;;;;;;;;4.50;99.90;;;;;;5029603;28;19986;-60
2024/03/25 04:19:46;;;;;;;;;;;4.50;99.90;;;;;;5035578;28;20361;-59
2024/03/25 04:22:12;;;;;;;;;;;4.50;99.90;;;;;;5032606;28;19927;-57
2024/03/25 04:24:37;;;;;;;;;;;4.40;99.90;;;;;;5039110;28;19913;-59
2024/03/25 04:27:03;;;;;;;;;;;4.50;99.90;;;;;;5035684;28;19923;-60
2024/03/25 04:29:29;;;;;;;;;;;4.50;99.90;;;;;;5044015;28;19913;-59
2024/03/25 04:31:54;;;;;;;;;;;4.50;99.90;;;;;;5034803;28;19948;-58
2024/03/25 04:34:20;;;;;;;;;;;4.50;99.90;;;;;;5032099;28;20028;-58
2024/03/25 04:36:46;;;;;;;;;;;4.50;99.90;;;;;;5040310;28;20370;-60
2024/03/25 04:39:11;;;;;;;;;;;4.50;99.90;;;;;;5039622;28;19925;-59
2024/03/25 04:41:37;;;;;;;;;;;4.40;99.90;;;;;;5031966;28;20354;-58
2024/03/25 04:44:02;;;;;;;;;;;4.50;99.90;;;;;;5040241;28;19917;-56
2024/03/25 04:46:28;;;;;;;;;;;4.40;99.90;;;;;;5037287;28;20019;-59
2024/03/25 04:48:53;;;;;;;;;;;4.50;99.90;;;;;;5034127;28;19917;-60
2024/03/25 04:51:19;;;;;;;;;;;4.40;99.90;;;;;;5036140;28;20016;-58
2024/03/25 04:53:44;;;;;;;;;;;4.30;99.90;;;;;;5035667;28;19980;-59
2024/03/25 04:56:10;;;;;;;;;;;4.30;99.90;;;;;;5039763;28;19913;-58
2024/03/25 04:58:36;;;;;;;;;;;4.30;99.90;;;;;;5046075;28;19909;-61
2024/03/25 05:01:01;;;;;;;;;;;4.30;99.90;;;;;;5033397;28;19940;-61
2024/03/25 05:03:26;;;;;;;;;;;4.30;99.90;;;;;;5031794;28;19917;-59
2024/03/25 05:05:52;;;;;;;;;;;4.30;99.90;;;;;;5031525;28;19924;-57
2024/03/25 05:08:17;;;;;;;;;;;4.30;99.90;;;;;;5039682;28;19917;-58
2024/03/25 05:10:43;;;;;;;;;;;4.30;99.90;;;;;;5031032;28;20442;-57
2024/03/25 05:13:08;;;;;;;;;;;4.20;99.90;;;;;;5031320;28;19932;-59
2024/03/25 05:15:34;;;;;;;;;;;4.30;99.90;;;;;;5031251;28;20322;-60
2024/03/25 05:17:59;;;;;;;;;;;4.20;99.90;;;;;;5013359;28;20456;-60
2024/03/25 05:20:26;;;;;;;;;;;4.20;99.90;;;;;;5045700;28;19924;-60
2024/03/25 05:22:52;;;;;;;;;;;4.20;99.90;;;;;;5030272;28;19921;-58
2024/03/25 05:25:17;;;;;;;;;;;4.20;99.90;;;;;;5043113;28;19966;-60
2024/03/25 05:27:43;;;;;;;;;;;4.30;99.90;;;;;;5034926;28;19917;-61
2024/03/25 05:30:08;;;;;;;;;;;4.30;99.90;;;;;;5032068;28;19917;-60
2024/03/25 05:32:34;;;;;;;;;;;4.20;99.90;;;;;;5035056;28;20335;-60
2024/03/25 05:34:59;;;;;;;;;;;4.20;99.90;;;;;;5031649;28;19917;-59
2024/03/25 05:37:25;;;;;;;;;;;4.20;99.90;;;;;;5041519;28;19917;-57
2024/03/25 05:39:50;;;;;;;;;;;4.20;99.90;;;;;;5041384;28;19913;-59
2024/03/25 05:42:16;;;;;;;;;;;4.10;99.90;;;;;;5038151;28;19960;-59
2024/03/25 05:44:41;;;;;;;;;;;4.10;99.90;;;;;;5037149;28;19923;-59
2024/03/25 05:47:06;;;;;;;;;;;4.20;99.90;;;;;;5030596;28;20269;-60
2024/03/25 05:49:32;;;;;;;;;;;4.20;99.90;;;;;;5029471;28;19979;-61
2024/03/25 05:51:57;;;;;;;;;;;4.20;99.90;;;;;;5029641;28;20015;-58
2024/03/25 05:54:23;;;;;;;;;;;4.20;99.90;;;;;;5029751;28;19924;-59
2024/03/25 05:56:48;;;;;;;;;;;4.20;99.90;;;;;;5029676;28;20270;-59
2024/03/25 05:59:14;;;;;;;;;;;4.20;99.90;;;;;;5041047;28;19924;-57
2024/03/25 06:01:40;;;;;;;;;;;4.20;99.90;;;;;;5029847;28;19921;-61
2024/03/25 06:04:05;;;;;;;;;;;4.20;99.90;;;;;;5031973;28;20364;-60
2024/03/25 06:06:32;;;;;;;;;;;4.20;99.90;;;;;;5035503;28;19984;-60
2024/03/25 06:08:57;;;;;;;;;;;4.30;99.90;;;;;;5029080;28;19921;-58
2024/03/25 06:11:23;;;;;;;;;;;4.30;99.90;;;;;;5029744;28;19917;-60
2024/03/25 06:13:48;;;;;;;;;;;4.50;99.90;;;;;;5029628;28;19936;-57
2024/03/25 06:16:14;;;;;;;;;;;4.50;99.90;;;;;;5037549;28;19919;-58
2024/03/25 06:18:42;;;;;;;;;;;4.60;99.90;;;;;;5029133;28;20005;-57
2024/03/25 06:21:08;;;;;;;;;;;4.80;99.90;;;;;;5029216;28;20802;-59
2024/03/25 06:23:33;;;;;;;;;;;4.90;99.90;;;;;;5037819;28;19952;-56
2024/03/25 06:25:59;;;;;;;;;;;5.00;99.90;;;;;;5030580;28;19917;-57
2024/03/25 06:28:24;;;;;;;;;;;5.00;99.90;;;;;;5035871;28;19938;-60
2024/03/25 06:36:19;;;;;;;;;;;5.30;99.90;;;;;;5030142;28;19967;-57
2024/03/25 06:38:44;;;;;;;;;;;5.40;99.90;;;;;;5036770;28;19925;-61
2024/03/25 06:41:10;;;;;;;;;;;5.40;99.90;;;;;;5039779;28;19974;-60
2024/03/25 06:43:36;;;;;;;;;;;5.40;99.90;;;;;;5042892;28;19916;-57
2024/03/25 06:46:01;;;;;;;;;;;5.50;99.90;;;;;;5030183;28;20285;-58
2024/03/25 06:48:26;;;;;;;;;;;5.60;99.90;;;;;;5035248;28;19994;-56
2024/03/25 06:50:52;;;;;;;;;;;5.60;99.90;;;;;;5029486;28;19917;-58
2024/03/25 06:53:18;;;;;;;;;;;5.70;99.90;;;;;;5037355;28;20376;-59
2024/03/25 06:55:50;;;;;;;;;;;5.70;99.90;;;;;;5029078;28;19964;-57
2024/03/25 06:58:15;;;;;;;;;;;5.70;99.90;;;;;;5037585;28;19987;-58
2024/03/25 07:00:41;;;;;;;;;;;5.50;99.90;;;;;;5035892;28;20357;-58
2024/03/25 07:03:06;;;;;;;;;;;5.60;99.90;;;;;;5038528;28;19913;-58
2024/03/25 07:05:32;;;;;;;;;;;5.60;99.90;;;;;;5035101;28;19924;-58
2024/03/25 07:07:57;;;;;;;;;;;5.60;99.90;;;;;;5039493;28;19921;-59
2024/03/25 07:10:23;;;;;;;;;;;5.60;99.90;;;;;;5028531;28;19949;-58
2024/03/25 07:12:48;;;;;;;;;;;5.60;99.90;;;;;;5029518;28;20404;-58
2024/03/25 07:15:14;;;;;;;;;;;5.60;99.90;;;;;;5029045;28;19917;-59
2024/03/25 07:17:39;;;;;;;;;;;5.70;99.90;;;;;;5037344;28;19924;-59
2024/03/25 07:20:08;;;;;;;;;;;5.80;99.90;;;;;;5037023;28;20218;-59
2024/03/25 07:22:33;;;;;;;;;;;6.10;99.90;;;;;;5037465;28;19940;-57
2024/03/25 07:24:59;;;;;;;;;;;6.50;99.90;;;;;;5046422;28;20151;-55
2024/03/25 07:27:24;;;;;;;;;;;6.80;99.90;;;;;;5049217;28;19917;-60
2024/03/25 07:29:51;;;;;;;;;;;7.00;99.90;;;;;;5032161;28;19917;-58
2024/03/25 07:32:16;;;;;;;;;;;7.00;99.90;;;;;;5036883;28;20373;-60
2024/03/25 07:34:42;;;;;;;;;;;6.90;99.90;;;;;;5029379;28;19922;-58
2024/03/25 07:37:07;;;;;;;;;;;7.00;99.90;;;;;;5028839;28;19917;-59
2024/03/25 07:39:32;;;;;;;;;;;7.40;99.90;;;;;;5028161;28;20288;-58
2024/03/25 07:41:59;;;;;;;;;;;7.40;99.90;;;;;;5028909;28;19967;-57
2024/03/25 07:44:24;;;;;;;;;;;7.30;99.90;;;;;;5042119;28;19916;-54
2024/03/25 07:46:50;;;;;;;;;;;7.20;99.90;;;;;;5043960;28;20012;-59
2024/03/25 07:49:15;;;;;;;;;;;7.10;99.90;;;;;;5040443;28;20019;-59
2024/03/25 07:51:41;;;;;;;;;;;7.00;99.90;;;;;;5032586;28;19956;-57
2024/03/25 07:54:07;;;;;;;;;;;6.80;99.90;;;;;;5032126;28;19920;-56
2024/03/25 07:56:36;;;;;;;;;;;6.80;99.90;;;;;;5038323;28;20012;-58
2024/03/25 07:59:02;;;;;;;;;;;6.70;99.90;;;;;;5050083;28;20297;-57
2024/03/25 08:01:28;;;;;;;;;;;6.80;99.90;;;;;;5032172;28;19913;-59
2024/03/25 08:03:53;;;;;;;;;;;6.80;99.90;;;;;;5032247;28;19909;-57
2024/03/25 08:06:21;;;;;;;;;;;6.70;99.90;;;;;;5035930;28;19923;-57
2024/03/25 08:08:46;;;;;;;;;;;6.60;99.90;;;;;;5043816;28;20006;-58
2024/03/25 08:11:12;;;;;;;;;;;6.70;99.90;;;;;;5030561;28;19956;-57
2024/03/25 08:13:37;;;;;;;;;;;6.80;99.90;;;;;;5032240;28;19921;-59
2024/03/25 08:16:03;;;;;;;;;;;6.90;99.90;;;;;;5039871;28;19999;-58
2024/03/25 08:18:28;;;;;;;;;;;6.90;99.90;;;;;;5031770;28;19913;-58
2024/03/25 08:20:54;;;;;;;;;;;7.10;99.90;;;;;;5040356;28;20415;-57
2024/03/25 08:23:19;;;;;;;;;;;7.90;99.90;;;;;;5031860;28;20019;-58
2024/03/25 08:25:45;;;;;;;;;;;8.70;99.90;;;;;;5039231;28;20051;-58
2024/03/25 08:28:10;;;;;;;;;;;8.70;99.90;;;;;;5040784;28;19919;-58
2024/03/25 08:30:36;;;;;;;;;;;8.50;99.90;;;;;;5039244;28;19914;-58
2024/03/25 08:33:01;;;;;;;;;;;8.30;99.90;;;;;;5032978;28;20020;-59
2024/03/25 08:35:27;;;;;;;;;;;8.50;99.90;;;;;;5046311;28;19959;-57
2024/03/25 08:37:52;;;;;;;;;;;8.80;99.90;;;;;;5031297;28;19921;-58
2024/03/25 08:40:18;;;;;;;;;;;8.80;99.90;;;;;;5030977;28;19913;-59
2024/03/25 08:42:44;;;;;;;;;;;8.40;99.90;;;;;;5031500;28;19913;-58
2024/03/25 08:45:10;;;;;;;;;;;8.20;99.90;;;;;;5039271;28;19924;-60
2024/03/25 08:47:35;;;;;;;;;;;8.10;99.90;;;;;;5030091;28;19929;-58
2024/03/25 08:50:01;;;;;;;;;;;8.20;99.90;;;;;;5030744;28;19917;-59
2024/03/25 08:52:26;;;;;;;;;;;8.50;99.90;;;;;;5031122;28;19924;-56
2024/03/25 08:54:52;;;;;;;;;;;8.80;99.90;;;;;;5021292;28;20347;-59
2024/03/25 08:57:17;;;;;;;;;;;9.50;99.90;;;;;;5030750;28;20289;-59
2024/03/25 08:59:43;;;;;;;;;;;10.40;99.90;;;;;;5038817;28;19917;-60
2024/03/25 09:02:08;;;;;;;;;;;11.10;99.90;;;;;;5030888;28;19913;-59
2024/03/25 09:04:34;;;;;;;;;;;12.20;99.90;;;;;;5038933;28;19913;-61
2024/03/25 09:06:59;;;;;;;;;;;12.80;99.90;;;;;;5039419;28;19917;-60
2024/03/25 09:12:08;;;;;;;;;;;12.10;99.90;;;;;;5031152;28;19924;-59
2024/03/25 09:14:34;;;;;;;;;;;11.10;99.90;;;;;;5030490;28;19917;-59
2024/03/25 09:16:59;;;;;;;;;;;10.40;99.90;;;;;;5029955;28;19913;-60
2024/03/25 09:19:25;;;;;;;;;;;9.80;99.90;;;;;;5029774;28;19917;-58
2024/03/25 09:21:51;;;;;;;;;;;9.50;99.90;;;;;;5030700;28;20420;-57
2024/03/25 09:24:17;;;;;;;;;;;9.50;99.90;;;;;;5030282;28;19940;-55
2024/03/25 09:26:43;;;;;;;;;;;9.50;99.90;;;;;;5037571;28;19917;-60
2024/03/25 09:29:08;;;;;;;;;;;9.60;99.90;;;;;;5031173;28;19916;-59
2024/03/25 09:31:34;;;;;;;;;;;10.50;99.90;;;;;;5036075;28;20067;-59
2024/03/25 09:33:59;;;;;;;;;;;10.70;99.90;;;;;;5040834;28;19924;-59
2024/03/25 09:36:25;;;;;;;;;;;11.00;99.90;;;;;;5030128;28;19967;-59
2024/03/25 09:38:52;;;;;;;;;;;11.20;99.90;;;;;;5038401;28;19921;-59
2024/03/25 09:41:18;;;;;;;;;;;11.60;99.90;;;;;;5030043;28;19917;-60
2024/03/25 09:43:45;;;;;;;;;;;11.80;99.90;;;;;;5037275;28;19967;-60
2024/03/25 09:46:11;;;;;;;;;;;11.80;99.90;;;;;;5030868;28;19920;-58
2024/03/25 09:48:36;;;;;;;;;;;11.70;99.90;;;;;;5029736;28;19920;-56
2024/03/25 09:51:02;;;;;;;;;;;11.60;99.90;;;;;;5046179;28;20442;-55
2024/03/25 09:53:28;;;;;;;;;;;11.40;99.90;;;;;;5029754;28;20015;-56
2024/03/25 09:55:56;;;;;;;;;;;10.80;99.90;;;;;;5019926;28;20297;-55
2024/03/25 09:58:22;;;;;;;;;;;10.60;99.90;;;;;;5036884;28;19913;-52
2024/03/25 10:00:47;;;;;;;;;;;10.30;99.90;;;;;;5037194;28;19919;-55
2024/03/25 10:03:14;;;;;;;;;;;10.10;99.90;;;;;;5038365;28;20023;-59
2024/03/25 10:05:40;;;;;;;;;;;10.00;99.90;;;;;;5037975;28;19988;-54
2024/03/25 10:08:05;;;;;;;;;;;10.10;99.90;;;;;;5038762;28;20372;-54
2024/03/25 10:10:31;;;;;;;;;;;10.20;99.90;;;;;;5035779;28;19921;-53
2024/03/25 10:12:56;;;;;;;;;;;10.70;99.90;;;;;;5037797;28;19921;-55
2024/03/25 10:15:22;;;;;;;;;;;11.90;99.90;;;;;;5037480;28;20008;-52
2024/03/25 10:17:49;;;;;;;;;;;12.30;99.90;;;;;;5028339;28;19917;-54
2024/03/25 10:20:14;;;;;;;;;;;12.50;99.90;;;;;;5029003;28;20408;-56
2024/03/25 10:22:41;;;;;;;;;;;12.30;99.90;;;;;;5029604;28;20011;-52
2024/03/25 10:25:07;;;;;;;;;;;11.80;99.90;;;;;;5031547;28;20654;-54
2024/03/25 10:27:33;;;;;;;;;;;11.50;99.90;;;;;;5023678;28;19913;-58
2024/03/25 10:29:59;;;;;;;;;;;11.30;99.90;;;;;;5023973;28;19917;-52
2024/03/25 10:32:24;;;;;;;;;;;11.20;99.90;;;;;;5024000;28;19957;-55
2024/03/25 10:34:50;;;;;;;;;;;10.90;99.90;;;;;;5023967;28;20427;-53
2024/03/25 10:37:17;;;;;;;;;;;10.50;99.90;;;;;;5023704;28;19917;-52
2024/03/25 10:39:50;;;;;;;;;;;10.60;99.90;;;;;;5023235;28;19956;-54
2024/03/25 10:42:18;;;;;;;;;;;11.00;99.90;;;;;;5025015;28;19905;-57
2024/03/25 10:44:44;;;;;;;;;;;11.60;99.90;;;;;;5024459;28;19959;-52
2024/03/25 10:47:11;;;;;;;;;;;12.50;99.90;;;;;;5023287;28;19920;-53
2024/03/25 10:49:48;;;;;;;;;;;13.00;99.90;;;;;;5022986;28;19944;-58
2024/03/25 10:52:14;;;;;;;;;;;12.60;99.90;;;;;;5022609;28;19948;-55
2024/03/25 10:54:41;;;;;;;;;;;12.10;99.90;;;;;;5023022;28;20236;-56
2024/03/25 10:57:07;;;;;;;;;;;11.60;99.90;;;;;;5024385;28;19928;-56
2024/03/25 10:59:37;;;;;;;;;;;11.50;99.90;;;;;;5022656;28;19932;-55
2024/03/25 11:02:03;;;;;;;;;;;11.40;99.90;;;;;;5024138;28;20039;-60
2024/03/25 11:04:30;;;;;;;;;;;11.30;99.90;;;;;;5033804;28;20279;-55
2024/03/25 11:07:06;;;;;;;;;;;11.60;99.90;;;;;;5022020;28;20393;-55
2024/03/25 11:09:31;;;;;;;;;;;12.00;99.90;;;;;;5008469;28;19931;-58
2024/03/25 11:11:58;;;;;;;;;;;12.70;99.90;;;;;;5032241;28;19921;-58
2024/03/25 11:14:26;;;;;;;;;;;13.10;99.90;;;;;;5022689;28;19940;-58
2024/03/25 11:16:52;;;;;;;;;;;13.30;99.90;;;;;;5023570;28;19960;-57
2024/03/25 11:19:18;;;;;;;;;;;13.50;99.90;;;;;;5022359;28;19917;-63
2024/03/25 11:21:44;;;;;;;;;;;13.50;99.90;;;;;;5026657;28;19913;-59
2024/03/25 11:24:09;;;;;;;;;;;13.00;99.90;;;;;;5027030;28;20353;-52
2024/03/25 11:26:40;;;;;;;;;;;13.00;99.90;;;;;;5026147;28;19921;-59
2024/03/25 11:29:05;;;;;;;;;;;13.30;99.90;;;;;;5025292;28;19916;-55
2024/03/25 11:31:32;;;;;;;;;;;13.10;99.90;;;;;;5026937;28;20301;-58
2024/03/25 11:34:03;;;;;;;;;;;13.00;99.90;;;;;;5026864;28;19935;-57
2024/03/25 11:36:30;;;;;;;;;;;13.20;99.90;;;;;;5025406;28;19916;-57
2024/03/25 11:39:00;;;;;;;;;;;13.20;99.90;;;;;;5025486;28;19948;-61
2024/03/25 11:41:26;;;;;;;;;;;13.70;99.90;;;;;;5026318;28;20587;-54
2024/03/25 11:43:51;;;;;;;;;;;13.90;99.90;;;;;;5026421;28;19913;-60
2024/03/25 11:46:18;;;;;;;;;;;13.80;99.90;;;;;;5026383;28;19921;-57
2024/03/25 11:48:44;;;;;;;;;;;13.80;99.90;;;;;;5026155;28;19924;-60
2024/03/25 11:51:11;;;;;;;;;;;13.60;99.90;;;;;;5027568;28;20316;-56
2024/03/25 11:53:36;;;;;;;;;;;13.30;99.90;;;;;;5026258;28;19928;-59
2024/03/25 11:56:02;;;;;;;;;;;13.00;99.90;;;;;;5026111;28;19921;-56
2024/03/25 11:58:28;;;;;;;;;;;12.80;99.90;;;;;;5025690;28;19956;-55
2024/03/25 12:00:54;;;;;;;;;;;13.10;99.90;;;;;;5026781;28;19924;-57
2024/03/25 12:03:19;;;;;;;;;;;13.20;99.90;;;;;;5028545;28;20404;-58
2024/03/25 12:05:45;;;;;;;;;;;13.20;99.90;;;;;;5026725;28;19991;-57
2024/03/25 12:08:11;;;;;;;;;;;13.30;99.90;;;;;;5031801;28;19924;-57
2024/03/25 12:13:23;;;;;;;;;;;12.90;99.90;;;;;;5022926;28;19995;-52
2024/03/25 12:15:49;;;;;;;;;;;12.60;99.90;;;;;;5025853;28;19913;-52
2024/03/25 12:18:15;;;;;;;;;;;12.70;99.90;;;;;;5025488;28;20418;-56
2024/03/25 12:20:41;;;;;;;;;;;13.10;99.90;;;;;;5028864;28;19921;-59
2024/03/25 12:23:07;;;;;;;;;;;13.00;99.90;;;;;;5039468;28;19919;-55
2024/03/25 12:25:32;;;;;;;;;;;13.00;99.90;;;;;;5034816;28;20497;-54
2024/03/25 12:27:58;;;;;;;;;;;13.00;99.90;;;;;;5033411;28;19913;-54
2024/03/25 12:30:23;;;;;;;;;;;13.20;99.90;;;;;;5038615;28;19924;-56
2024/03/25 12:32:50;;;;;;;;;;;13.40;99.90;;;;;;5031121;28;19921;-51
2024/03/25 12:35:16;;;;;;;;;;;13.60;99.90;;;;;;5042196;28;19912;-54
2024/03/25 12:37:43;;;;;;;;;;;13.90;99.90;;;;;;5036379;28;20242;-52
2024/03/25 12:40:09;;;;;;;;;;;14.00;99.90;;;;;;5038614;28;19932;-52
2024/03/25 12:42:35;;;;;;;;;;;14.30;99.90;;;;;;5031118;28;19921;-57
2024/03/25 12:45:01;;;;;;;;;;;14.00;99.90;;;;;;5031036;28;20274;-57
2024/03/25 12:47:26;;;;;;;;;;;14.30;99.90;;;;;;5034986;28;19931;-52
2024/03/25 12:49:52;;;;;;;;;;;14.70;99.90;;;;;;5042465;28;19917;-54
2024/03/25 12:52:17;;;;;;;;;;;14.90;99.90;;;;;;5030640;28;20012;-56
2024/03/25 12:54:43;;;;;;;;;;;14.90;99.90;;;;;;5030540;28;20373;-55
2024/03/25 12:57:09;;;;;;;;;;;15.10;99.90;;;;;;5030230;28;19917;-53
2024/03/25 12:59:34;;;;;;;;;;;15.20;99.90;;;;;;5030548;28;19960;-53
2024/03/25 13:02:00;;;;;;;;;;;15.10;99.90;;;;;;5030628;28;20369;-57
2024/03/25 13:04:26;;;;;;;;;;;15.00;99.90;;;;;;5038703;28;19909;-53
2024/03/25 13:06:51;;;;;;;;;;;14.80;99.90;;;;;;5038273;28;19909;-57
2024/03/25 13:09:17;;;;;;;;;;;15.00;99.90;;;;;;5030248;28;19913;-54
2024/03/25 13:11:42;;;;;;;;;;;15.20;99.90;;;;;;5036915;28;19921;-52
2024/03/25 13:14:11;;;;;;;;;;;15.40;99.90;;;;;;5031946;28;19975;-55
2024/03/25 13:16:37;;;;;;;;;;;15.20;99.90;;;;;;5038535;28;20439;-52
2024/03/25 13:19:02;;;;;;;;;;;15.20;99.90;;;;;;5029731;28;19921;-54
2024/03/25 13:21:28;;;;;;;;;;;15.00;99.90;;;;;;5038592;28;20289;-54
2024/03/25 13:23:54;;;;;;;;;;;15.00;99.90;;;;;;5038598;28;19913;-52
2024/03/25 13:26:19;;;;;;;;;;;15.00;99.90;;;;;;5033086;28;19955;-59
2024/03/25 13:28:45;;;;;;;;;;;15.10;99.90;;;;;;5042736;28;19948;-53
2024/03/25 13:31:10;;;;;;;;;;;15.10;99.90;;;;;;5030133;28;20278;-54
2024/03/25 13:33:36;;;;;;;;;;;15.40;99.90;;;;;;5029160;28;19978;-56
2024/03/25 13:36:02;;;;;;;;;;;15.40;99.90;;;;;;5029821;28;19920;-51
2024/03/25 13:38:28;;;;;;;;;;;15.30;99.90;;;;;;5033928;28;19967;-56
2024/03/25 13:40:53;;;;;;;;;;;15.40;99.90;;;;;;5033576;28;20499;-53
2024/03/25 13:43:18;;;;;;;;;;;15.20;99.90;;;;;;5037329;28;19913;-53
2024/03/25 13:45:47;;;;;;;;;;;15.20;99.90;;;;;;5029792;28;19921;-59
2024/03/25 13:48:13;;;;;;;;;;;15.30;99.90;;;;;;5037946;28;20316;-53
2024/03/25 13:50:39;;;;;;;;;;;15.60;99.90;;;;;;5029229;28;19917;-53
2024/03/25 13:53:05;;;;;;;;;;;15.80;99.90;;;;;;5029779;28;20036;-55
2024/03/25 13:55:30;;;;;;;;;;;15.90;99.90;;;;;;5029381;28;20656;-54
2024/03/25 13:57:56;;;;;;;;;;;15.90;99.90;;;;;;5029504;28;19923;-56
2024/03/25 14:00:22;;;;;;;;;;;16.20;99.90;;;;;;5036484;28;19923;-56
2024/03/25 14:02:47;;;;;;;;;;;16.40;99.90;;;;;;5029514;28;20372;-57
2024/03/25 14:05:13;;;;;;;;;;;16.70;99.90;;;;;;5048263;28;19943;-56
2024/03/25 14:07:38;;;;;;;;;;;16.80;99.90;;;;;;5034992;28;19917;-57
2024/03/25 14:10:04;;;;;;;;;;;16.00;99.90;;;;;;5028696;28;20015;-52
2024/03/25 14:12:29;;;;;;;;;;;15.70;99.90;;;;;;5029331;28;19921;-51
2024/03/25 14:14:55;;;;;;;;;;;15.70;99.90;;;;;;5037649;28;20364;-53
2024/03/25 14:17:20;;;;;;;;;;;15.80;99.90;;;;;;5048836;28;19917;-56
2024/03/25 14:19:46;;;;;;;;;;;16.00;99.90;;;;;;5041722;28;20024;-57
2024/03/25 14:22:11;;;;;;;;;;;15.80;99.90;;;;;;5029173;28;19917;-57
2024/03/25 14:24:37;;;;;;;;;;;15.90;99.90;;;;;;5029210;28;19913;-56
2024/03/25 14:27:03;;;;;;;;;;;16.10;99.90;;;;;;5038036;28;20431;-55
2024/03/25 14:29:28;;;;;;;;;;;16.10;99.90;;;;;;5043904;28;19913;-59